Time;durP1;ratioP1;P1;durP2;ratioP2;P2;SDS_P1;SDS_P2;PMS_P1;PMS_P2;Temp;Humidity;BMP_temperature;BMP_pressure;BME280_temperature;BME280_humidity;BME280_pressure;Samples;Min_cycle;Max_cycle;Signal;HPM_P1;HPM_P2
2023/06/07 00:03:48;;;;;;;3.27;3.00;;;19.60;33.20;;;;;;10471076;28;20304;-76
2023/06/07 00:08:52;;;;;;;2.93;2.63;;;19.70;32.80;;;;;;10470648;28;20724;-77
2023/06/07 00:13:59;;;;;;;2.87;2.77;;;19.70;32.70;;;;;;10470824;28;20275;-77
2023/06/07 00:19:03;;;;;;;2.93;2.73;;;19.70;32.90;;;;;;10434794;28;20221;-77
2023/06/07 00:24:07;;;;;;;3.07;2.87;;;19.60;32.50;;;;;;10426962;28;20229;-77
2023/06/07 00:29:13;;;;;;;3.13;2.93;;;19.60;32.60;;;;;;10428112;28;20234;-78
2023/06/07 00:34:16;;;;;;;2.87;2.67;;;19.60;32.90;;;;;;10428909;28;20249;-77
2023/06/07 00:39:19;;;;;;;3.17;2.97;;;19.60;32.60;;;;;;10427873;28;20229;-77
2023/06/07 00:44:24;;;;;;;3.17;2.80;;;19.50;32.50;;;;;;10422664;28;20225;-78
2023/06/07 00:49:27;;;;;;;2.63;2.50;;;19.50;32.60;;;;;;10430827;28;20239;-77
2023/06/07 00:54:30;;;;;;;2.63;2.50;;;19.50;32.30;;;;;;10423034;28;20249;-77
2023/06/07 00:59:36;;;;;;;2.77;2.67;;;19.40;32.20;;;;;;10422364;28;20315;-77
2023/06/07 01:04:40;;;;;;;2.97;2.77;;;19.40;32.50;;;;;;10431324;28;20308;-78
2023/06/07 01:09:44;;;;;;;2.83;2.63;;;19.30;32.50;;;;;;10429975;28;20229;-77
2023/06/07 01:14:49;;;;;;;3.03;2.83;;;19.20;32.50;;;;;;10433948;28;20880;-77
2023/06/07 01:19:55;;;;;;;3.17;2.97;;;19.00;32.90;;;;;;10432748;28;20232;-76
2023/06/07 01:25:00;;;;;;;2.87;2.67;;;19.00;32.80;;;;;;10427157;28;20229;-77
2023/06/07 01:30:05;;;;;;;2.90;2.70;;;18.90;33.10;;;;;;10470057;28;20220;-77
2023/06/07 01:35:11;;;;;;;3.20;3.00;;;18.90;33.00;;;;;;10464822;28;20307;-77
2023/06/07 01:40:17;;;;;;;2.87;2.67;;;18.80;33.10;;;;;;10466795;28;20239;-77
2023/06/07 01:45:20;;;;;;;2.80;2.60;;;18.70;33.20;;;;;;10472510;28;20307;-78
2023/06/07 01:50:23;;;;;;;3.10;2.90;;;18.70;32.90;;;;;;10473988;28;20311;-77
2023/06/07 01:55:28;;;;;;;2.60;2.40;;;18.60;32.90;;;;;;10481449;28;20307;-77
2023/06/07 02:00:41;;;;;;;2.60;2.40;;;18.50;33.10;;;;;;10466818;28;20347;-76
2023/06/07 02:05:49;;;;;;;2.70;2.60;;;18.40;33.40;;;;;;10478696;28;20869;-76
2023/06/07 02:10:54;;;;;;;3.13;2.93;;;18.30;33.70;;;;;;10482938;28;20220;-76
2023/06/07 02:15:57;;;;;;;3.57;3.37;;;18.30;33.40;;;;;;10489891;28;20831;-77
2023/06/07 02:21:00;;;;;;;2.83;2.63;;;18.10;33.20;;;;;;10480056;28;20690;-77
2023/06/07 02:26:05;;;;;;;3.20;3.00;;;17.90;33.30;;;;;;10481011;28;20212;-77
2023/06/07 02:31:08;;;;;;;3.00;2.80;;;17.80;34.10;;;;;;10476395;28;20287;-76
2023/06/07 02:36:12;;;;;;;3.10;2.90;;;17.60;33.80;;;;;;10483199;28;20254;-77
2023/06/07 02:41:17;;;;;;;3.33;3.03;;;17.60;34.40;;;;;;10481051;28;20961;-78
2023/06/07 02:46:20;;;;;;;3.37;3.17;;;17.50;34.30;;;;;;10481730;28;20611;-78
2023/06/07 02:51:23;;;;;;;3.43;3.13;;;17.40;34.20;;;;;;10480572;28;20228;-77
2023/06/07 02:56:29;;;;;;;2.60;2.50;;;17.30;34.10;;;;;;10487360;28;20236;-76
2023/06/07 03:01:34;;;;;;;2.73;2.53;;;17.20;34.50;;;;;;10472366;28;20221;-77
2023/06/07 03:06:40;;;;;;;3.37;3.10;;;17.20;34.00;;;;;;10478001;28;20680;-75
2023/06/07 03:11:46;;;;;;;3.80;3.40;;;17.30;34.10;;;;;;10478849;28;20286;-75
2023/06/07 03:16:49;;;;;;;3.03;2.77;;;17.30;34.60;;;;;;10477922;28;20927;-75
2023/06/07 03:21:53;;;;;;;3.47;3.27;;;17.30;34.10;;;;;;10473917;28;20229;-75
2023/06/07 03:26:59;;;;;;;3.60;3.40;;;17.30;34.10;;;;;;10481641;28;20282;-75
2023/06/07 03:32:05;;;;;;;3.60;3.40;;;17.20;34.60;;;;;;10475619;28;20228;-74
2023/06/07 03:37:08;;;;;;;3.23;2.93;;;17.00;34.30;;;;;;10462196;28;20235;-74
2023/06/07 03:42:13;;;;;;;3.50;3.20;;;16.90;34.60;;;;;;10462237;28;20259;-74
2023/06/07 03:47:16;;;;;;;2.80;2.60;;;16.70;35.40;;;;;;10465996;28;21069;-74
2023/06/07 03:52:19;;;;;;;3.10;2.90;;;16.60;35.10;;;;;;10465259;28;20819;-74
2023/06/07 03:57:24;;;;;;;3.80;3.50;;;16.60;35.50;;;;;;10462089;28;20249;-74
2023/06/07 04:02:28;;;;;;;3.30;2.97;;;16.60;36.30;;;;;;10466855;28;20229;-74
2023/06/07 04:07:31;;;;;;;3.47;3.17;;;16.60;35.80;;;;;;10470095;28;20562;-74
2023/06/07 04:12:35;;;;;;;3.83;3.60;;;16.60;36.00;;;;;;10473687;28;21265;-75
2023/06/07 04:17:39;;;;;;;3.30;3.10;;;16.70;36.80;;;;;;10467244;28;20228;-74
2023/06/07 04:22:42;;;;;;;5.00;3.60;;;16.80;36.30;;;;;;10468672;28;20242;-74
2023/06/07 04:27:48;;;;;;;4.13;3.73;;;16.90;36.50;;;;;;10466050;28;20216;-74
2023/06/07 04:32:52;;;;;;;4.27;3.93;;;17.00;37.10;;;;;;10460201;28;20221;-74
2023/06/07 04:37:56;;;;;;;4.30;4.00;;;17.00;36.40;;;;;;10461530;28;20233;-74
2023/06/07 04:43:04;;;;;;;4.93;4.53;;;16.90;36.30;;;;;;10461703;28;20242;-75
2023/06/07 04:48:08;;;;;;;4.43;4.13;;;16.90;37.40;;;;;;10420865;28;20632;-74
2023/06/07 04:53:11;;;;;;;4.10;3.70;;;16.80;36.80;;;;;;10415611;28;20718;-75
2023/06/07 04:58:16;;;;;;;4.37;3.97;;;16.90;37.00;;;;;;10421426;28;20513;-75
2023/06/07 05:03:21;;;;;;;4.70;4.40;;;16.90;37.90;;;;;;10418935;28;20237;-74
2023/06/07 05:08:25;;;;;;;4.77;4.47;;;17.00;37.40;;;;;;10419978;28;20261;-75
2023/06/07 05:13:29;;;;;;;4.83;4.43;;;17.10;37.40;;;;;;10421868;28;20253;-75
2023/06/07 05:18:36;;;;;;;5.47;4.40;;;17.20;38.00;;;;;;10419230;28;20259;-75
2023/06/07 05:23:39;;;;;;;4.60;4.20;;;17.30;37.60;;;;;;10420288;28;20229;-75
2023/06/07 05:28:44;;;;;;;5.03;4.73;;;17.40;37.70;;;;;;10419259;28;20234;-74
2023/06/07 05:33:47;;;;;;;4.90;4.60;;;17.50;38.50;;;;;;10412039;28;20296;-75
2023/06/07 05:38:50;;;;;;;4.80;4.40;;;17.60;37.90;;;;;;10422342;28;20243;-74
2023/06/07 05:43:55;;;;;;;7.50;6.80;;;17.70;37.90;;;;;;10417714;28;20229;-74
2023/06/07 05:48:58;;;;;;;7.80;7.10;;;17.80;38.70;;;;;;10476296;22;20299;-76
2023/06/07 05:54:01;;;;;;;9.60;8.80;;;17.90;38.40;;;;;;10512178;28;20760;-77
2023/06/07 05:59:06;;;;;;;9.50;8.60;;;18.00;38.70;;;;;;10502742;28;20235;-77
2023/06/07 06:04:09;;;;;;;8.33;7.63;;;18.10;39.30;;;;;;10468690;28;20357;-77
2023/06/07 06:09:12;;;;;;;10.20;9.27;;;18.10;38.70;;;;;;10499671;28;20250;-77
2023/06/07 06:14:17;;;;;;;9.83;8.80;;;18.20;38.90;;;;;;10470245;28;20227;-77
2023/06/07 06:19:20;;;;;;;12.47;11.17;;;18.30;39.70;;;;;;10502021;28;20223;-75
2023/06/07 06:24:23;;;;;;;12.07;10.83;;;18.30;39.20;;;;;;10503810;28;20219;-77
2023/06/07 06:29:28;;;;;;;11.20;10.20;;;18.40;39.30;;;;;;10511859;28;20270;-77
2023/06/07 06:34:31;;;;;;;12.30;11.13;;;18.40;39.70;;;;;;10521724;28;20223;-77
2023/06/07 06:39:35;;;;;;;11.97;10.87;;;18.50;39.40;;;;;;10507937;28;20282;-78
2023/06/07 06:44:39;;;;;;;12.00;10.90;;;18.50;39.40;;;;;;10521119;28;20248;-78
2023/06/07 06:49:42;;;;;;;12.60;11.40;;;18.50;40.00;;;;;;10501262;28;20238;-75
2023/06/07 06:54:45;;;;;;;12.10;10.83;;;18.60;39.50;;;;;;10511455;28;20632;-75
2023/06/07 06:59:50;;;;;;;13.00;11.60;;;18.60;39.60;;;;;;10513213;28;20230;-76
2023/06/07 07:04:53;;;;;;;11.40;10.40;;;18.70;40.40;;;;;;10518940;28;20227;-76
2023/06/07 07:09:57;;;;;;;12.27;11.07;;;18.70;39.70;;;;;;10512838;28;20311;-77
2023/06/07 07:15:02;;;;;;;12.47;11.30;;;18.80;39.90;;;;;;10506086;28;20765;-73
2023/06/07 07:20:06;;;;;;;11.80;10.70;;;18.80;40.40;;;;;;10473595;28;20289;-75
2023/06/07 07:25:11;;;;;;;12.77;11.50;;;19.00;40.20;;;;;;10463860;28;20233;-76
2023/06/07 07:30:15;;;;;;;10.90;9.97;;;19.00;40.20;;;;;;10472621;28;20246;-75
2023/06/07 07:35:18;;;;;;;11.43;10.33;;;19.20;40.70;;;;;;10464351;28;20282;-76
2023/06/07 07:40:22;;;;;;;12.77;11.57;;;19.30;40.20;;;;;;10461327;28;20373;-75
2023/06/07 07:45:26;;;;;;;12.37;10.77;;;19.40;40.20;;;;;;10458558;28;20249;-74
2023/06/07 07:50:30;;;;;;;13.23;12.00;;;19.50;40.80;;;;;;10460603;28;21205;-75
2023/06/07 07:55:34;;;;;;;13.17;11.90;;;19.70;40.30;;;;;;10461471;28;20311;-75
2023/06/07 08:00:40;;;;;;;14.33;12.97;;;19.80;40.40;;;;;;10454382;28;20728;-74
2023/06/07 08:05:43;;;;;;;13.00;11.90;;;19.90;41.00;;;;;;10456818;28;20316;-75
2023/06/07 08:10:47;;;;;;;14.17;12.87;;;20.00;40.30;;;;;;10455843;28;20316;-74
2023/06/07 08:15:51;;;;;;;16.50;14.90;;;20.10;40.20;;;;;;10460407;28;20251;-74
2023/06/07 08:20:54;;;;;;;17.43;15.83;;;20.20;40.60;;;;;;10463134;28;20233;-78
2023/06/07 08:25:58;;;;;;;17.13;15.53;;;20.20;40.00;;;;;;10454127;28;20220;-77
2023/06/07 08:31:04;;;;;;;17.17;15.57;;;20.30;40.20;;;;;;10460581;28;20223;-79
2023/06/07 08:36:07;;;;;;;16.93;15.33;;;20.30;40.70;;;;;;10468271;28;20227;-79
2023/06/07 08:41:11;;;;;;;16.83;15.10;;;20.40;40.20;;;;;;10460314;28;20220;-78
2023/06/07 08:46:17;;;;;;;13.43;12.13;;;20.40;40.40;;;;;;10459449;28;20289;-75
2023/06/07 08:51:22;;;;;;;17.00;15.40;;;20.50;40.60;;;;;;10507128;28;20919;-75
2023/06/07 08:56:27;;;;;;;16.13;14.70;;;20.70;40.60;;;;;;10507577;28;20241;-74
2023/06/07 09:01:34;;;;;;;15.23;13.83;;;20.80;40.50;;;;;;10501250;28;20232;-75
2023/06/07 09:06:38;;;;;;;16.20;14.60;;;21.00;40.80;;;;;;10502287;28;20232;-74
2023/06/07 09:11:41;;;;;;;12.67;11.53;;;21.20;40.40;;;;;;10497030;28;20234;-73
2023/06/07 09:16:56;;;;;;;13.57;11.73;;;21.50;40.60;;;;;;10501773;28;20231;-73
2023/06/07 09:21:59;;;;;;;12.33;11.23;;;21.80;41.00;;;;;;10508280;28;20230;-74
2023/06/07 09:27:04;;;;;;;11.47;10.47;;;22.10;40.10;;;;;;10501657;28;20224;-73
2023/06/07 09:32:23;;;;;;;11.30;10.23;;;22.40;39.60;;;;;;10504469;28;20246;-74
2023/06/07 09:37:41;;;;;;;8.53;7.83;;;22.80;39.30;;;;;;10506519;28;20690;-74
2023/06/07 09:42:45;;;;;;;9.37;8.47;;;23.10;39.30;;;;;;10497802;28;20244;-74
2023/06/07 09:47:49;;;;;;;8.10;7.40;;;23.40;38.80;;;;;;10513392;28;20269;-75
2023/06/07 09:52:56;;;;;;;6.60;6.10;;;23.70;37.60;;;;;;10508879;28;20220;-75
2023/06/07 09:57:59;;;;;;;5.70;5.30;;;23.90;36.60;;;;;;10509014;28;20231;-76
2023/06/07 10:03:07;;;;;;;6.27;5.77;;;24.20;36.70;;;;;;10462711;28;20739;-76
2023/06/07 10:08:11;;;;;;;5.87;5.47;;;24.40;35.80;;;;;;10463506;28;20270;-77
2023/06/07 10:13:18;;;;;;;5.53;5.10;;;24.60;35.90;;;;;;10462073;28;20310;-76
2023/06/07 10:18:26;;;;;;;6.50;6.00;;;24.90;35.40;;;;;;10463889;28;20335;-76
2023/06/07 10:23:36;;;;;;;6.50;6.00;;;25.00;34.60;;;;;;10468172;28;20235;-76
2023/06/07 10:28:44;;;;;;;6.67;6.07;;;25.20;34.70;;;;;;10466223;28;20315;-80
2023/06/07 10:33:51;;;;;;;6.90;6.40;;;25.30;34.20;;;;;;10474896;28;20231;-79
2023/06/07 10:38:56;;;;;;;6.23;5.63;;;25.40;33.10;;;;;;10482097;28;20240;-74
2023/06/07 10:44:01;;;;;;;5.70;5.20;;;25.60;33.20;;;;;;10479268;28;20236;-75
2023/06/07 10:49:12;;;;;;;5.93;5.43;;;25.70;33.00;;;;;;10506295;28;20228;-72
2023/06/07 10:54:29;;;;;;;5.03;4.63;;;25.70;32.00;;;;;;10512322;28;20224;-75
2023/06/07 10:59:32;;;;;;;5.60;5.20;;;25.80;31.90;;;;;;10519939;28;20302;-77
2023/06/07 11:04:55;;;;;;;4.80;4.40;;;26.00;32.00;;;;;;10508407;28;20224;-77
2023/06/07 11:10:33;;;;;;;4.43;4.13;;;26.00;30.00;;;;;;10508319;28;20228;-76
2023/06/07 11:15:36;;;;;;;4.97;4.67;;;26.10;30.80;;;;;;10505382;28;20216;-77
2023/06/07 11:20:52;;;;;;;4.47;4.10;;;26.20;30.70;;;;;;10508302;28;20714;-77
2023/06/07 11:25:59;;;;;;;4.80;4.40;;;26.30;29.40;;;;;;10511379;28;20268;-76
2023/06/07 11:31:02;;;;;;;5.13;4.73;;;26.40;29.40;;;;;;10503758;28;20223;-77
2023/06/07 11:36:10;;;;;;;5.23;4.83;;;26.50;29.50;;;;;;10505235;28;20243;-76
2023/06/07 11:41:14;;;;;;;4.93;4.63;;;26.60;29.00;;;;;;10501823;28;20255;-77
2023/06/07 11:46:19;;;;;;;5.07;4.67;;;26.70;29.60;;;;;;10501759;28;20229;-77
2023/06/07 11:51:33;;;;;;;5.47;5.07;;;26.70;29.60;;;;;;10446626;22;20650;-77
2023/06/07 11:56:38;;;;;;;5.07;4.77;;;26.80;28.40;;;;;;10374797;28;20226;-77
2023/06/07 12:01:43;;;;;;;4.80;4.37;;;26.90;29.10;;;;;;10373043;28;20317;-76
2023/06/07 12:06:51;;;;;;;5.40;4.90;;;27.00;29.20;;;;;;10374940;28;20295;-76
2023/06/07 12:11:55;;;;;;;5.30;4.90;;;27.10;28.20;;;;;;10369548;28;20707;-77
2023/06/07 12:17:00;;;;;;;5.43;4.93;;;27.20;28.40;;;;;;10376580;28;20226;-79
2023/06/07 12:22:10;;;;;;;5.00;4.70;;;27.20;27.60;;;;;;10373885;28;20328;-78
2023/06/07 12:27:16;;;;;;;5.80;5.30;;;27.10;27.50;;;;;;10383174;28;20240;-79
2023/06/07 12:32:23;;;;;;;4.80;4.50;;;27.10;26.80;;;;;;10387656;28;20584;-79
2023/06/07 12:37:30;;;;;;;5.40;5.00;;;27.10;26.30;;;;;;10372283;28;20236;-79
2023/06/07 12:42:33;;;;;;;5.00;4.60;;;27.10;26.00;;;;;;10357080;28;20959;-79
2023/06/07 12:47:37;;;;;;;4.80;4.40;;;27.10;27.10;;;;;;10368969;28;20322;-77
2023/06/07 12:52:44;;;;;;;5.10;4.80;;;27.10;27.00;;;;;;10358435;28;20645;-77
2023/06/07 12:57:48;;;;;;;5.63;5.20;;;27.10;26.30;;;;;;10359592;28;20214;-73
2023/06/07 13:02:52;;;;;;;5.27;4.87;;;27.00;26.30;;;;;;10360512;28;20247;-73
2023/06/07 13:07:57;;;;;;;5.17;4.80;;;27.00;26.40;;;;;;10360755;28;20688;-78
2023/06/07 13:13:01;;;;;;;4.57;4.27;;;27.00;25.90;;;;;;10359547;28;21068;-76
2023/06/07 13:18:04;;;;;;;4.50;4.20;;;27.00;26.60;;;;;;10363001;28;20222;-77
2023/06/07 13:23:09;;;;;;;4.53;4.23;;;27.20;26.10;;;;;;10384088;28;20808;-79
2023/06/07 13:28:12;;;;;;;4.27;3.97;;;27.20;25.20;;;;;;10385827;28;20272;-79
2023/06/07 13:33:19;;;;;;;4.10;3.80;;;27.30;25.80;;;;;;10372660;28;20237;-73
2023/06/07 13:38:23;;;;;;;4.60;4.20;;;27.40;24.90;;;;;;10373486;28;21027;-74
2023/06/07 13:43:34;;;;;;;3.80;3.53;;;27.50;24.50;;;;;;10387960;28;20249;-80
2023/06/07 13:48:57;;;;;;;3.90;3.60;;;27.60;24.90;;;;;;10376840;28;20231;-77
2023/06/07 13:54:03;;;;;;;3.90;3.60;;;27.70;24.30;;;;;;10381088;28;20321;-76
2023/06/07 13:59:06;;;;;;;3.77;3.57;;;27.70;23.50;;;;;;10375373;28;20702;-73
2023/06/07 14:04:09;;;;;;;4.57;4.17;;;27.70;24.00;;;;;;10371560;28;20241;-73
2023/06/07 14:09:15;;;;;;;4.00;3.70;;;27.70;23.30;;;;;;10386022;28;20233;-73
2023/06/07 14:14:19;;;;;;;4.30;4.00;;;27.80;22.90;;;;;;10375207;28;20233;-70
2023/06/07 14:19:22;;;;;;;4.20;3.90;;;27.80;23.50;;;;;;10381531;28;20238;-73
2023/06/07 14:24:27;;;;;;;4.10;3.67;;;27.90;23.50;;;;;;10374441;28;20226;-76
2023/06/07 14:29:30;;;;;;;4.40;4.10;;;27.90;22.40;;;;;;10381029;28;20225;-77
2023/06/07 14:34:33;;;;;;;4.53;4.13;;;28.00;23.10;;;;;;10380316;28;20733;-76
2023/06/07 14:39:38;;;;;;;3.80;3.60;;;28.00;23.00;;;;;;10385596;28;20238;-76
2023/06/07 14:44:41;;;;;;;4.20;3.90;;;28.10;22.20;;;;;;10391061;28;20232;-77
2023/06/07 14:49:44;;;;;;;4.30;3.90;;;28.10;22.00;;;;;;10384053;28;20509;-77
2023/06/07 14:54:49;;;;;;;4.13;3.83;;;28.20;21.90;;;;;;10387278;28;20723;-77
2023/06/07 14:59:52;;;;;;;3.80;3.50;;;28.30;21.70;;;;;;10381408;28;20838;-76
2023/06/07 15:04:55;;;;;;;3.60;3.40;;;28.50;21.60;;;;;;10392157;28;20229;-77
2023/06/07 15:10:00;;;;;;;3.80;3.50;;;28.60;21.20;;;;;;10407142;28;20553;-78
2023/06/07 15:15:05;;;;;;;3.67;3.47;;;28.60;19.60;;;;;;10386552;28;20938;-75
2023/06/07 15:20:09;;;;;;;3.80;3.60;;;28.60;20.30;;;;;;10386423;28;20239;-78
2023/06/07 15:25:16;;;;;;;3.27;3.07;;;28.60;20.10;;;;;;10380730;28;20317;-78
2023/06/07 15:30:19;;;;;;;4.43;3.40;;;28.70;19.80;;;;;;10391253;28;20752;-77
2023/06/07 15:35:23;;;;;;;3.40;3.20;;;28.80;19.90;;;;;;10387218;28;20235;-77
2023/06/07 15:40:27;;;;;;;3.40;3.20;;;28.80;19.60;;;;;;10375773;28;20229;-72
2023/06/07 15:45:30;;;;;;;3.90;3.60;;;28.80;18.70;;;;;;10384139;28;20236;-78
2023/06/07 15:50:34;;;;;;;3.40;3.20;;;28.80;19.20;;;;;;10385730;28;20221;-76
2023/06/07 15:55:38;;;;;;;3.57;3.27;;;28.90;19.10;;;;;;10369367;28;20329;-81
2023/06/07 16:00:46;;;;;;;3.60;3.33;;;28.90;18.10;;;;;;10380016;28;20226;-81
2023/06/07 16:05:49;;;;;;;3.70;3.50;;;29.00;18.20;;;;;;10406367;28;20225;-81
2023/06/07 16:10:54;;;;;;;3.67;3.37;;;29.10;17.40;;;;;;10392657;28;20229;-81
2023/06/07 16:15:57;;;;;;;5.37;3.23;;;29.00;17.20;;;;;;10392224;28;20229;-80
2023/06/07 16:21:00;;;;;;;3.67;3.40;;;29.10;18.00;;;;;;10395223;28;20230;-80
2023/06/07 16:26:05;;;;;;;3.40;3.20;;;29.00;17.80;;;;;;10434031;28;20895;-80
2023/06/07 16:31:08;;;;;;;3.53;3.30;;;29.00;17.30;;;;;;10430753;28;20229;-80
2023/06/07 16:36:11;;;;;;;3.93;3.63;;;29.00;17.50;;;;;;10431632;28;20233;-80
2023/06/07 16:41:21;;;;;;;3.43;3.23;;;28.90;17.60;;;;;;10439481;28;20234;-80
2023/06/07 16:46:24;;;;;;;3.60;3.40;;;28.90;16.90;;;;;;10443177;28;20235;-80
2023/06/07 16:51:27;;;;;;;3.70;3.40;;;28.90;17.40;;;;;;10431199;28;20757;-80
2023/06/07 16:56:32;;;;;;;3.47;3.27;;;28.90;17.70;;;;;;10432332;28;20784;-80
2023/06/07 17:01:35;;;;;;;3.53;3.33;;;28.90;16.90;;;;;;10420309;28;20221;-80
2023/06/07 17:06:38;;;;;;;3.77;3.40;;;28.90;17.30;;;;;;10428856;28;20333;-80
2023/06/07 17:11:43;;;;;;;3.50;3.30;;;28.90;17.30;;;;;;10431968;28;20221;-80
2023/06/07 17:16:48;;;;;;;4.20;3.80;;;28.90;17.00;;;;;;10437978;28;20625;-81
2023/06/07 17:21:52;;;;;;;3.77;3.47;;;29.00;17.00;;;;;;10429373;28;20241;-81
2023/06/07 17:26:56;;;;;;;3.93;3.63;;;29.00;17.20;;;;;;10436617;28;20235;-81
2023/06/07 17:32:00;;;;;;;3.73;3.43;;;29.00;16.90;;;;;;10436080;28;20217;-80
2023/06/07 17:37:14;;;;;;;3.57;3.27;;;29.00;17.40;;;;;;10436558;28;20233;-80
2023/06/07 17:42:20;;;;;;;3.87;3.57;;;29.00;17.30;;;;;;10426160;28;20282;-80
2023/06/07 17:47:25;;;;;;;3.53;3.33;;;29.10;16.80;;;;;;10440935;28;20233;-80
2023/06/07 17:52:28;;;;;;;7.33;3.90;;;29.10;17.70;;;;;;10432684;28;20602;-74
2023/06/07 17:57:32;;;;;;;3.63;3.33;;;29.00;17.50;;;;;;10430463;28;20775;-82
2023/06/07 18:02:36;;;;;;;3.90;3.60;;;29.00;17.60;;;;;;10439956;28;20227;-81
2023/06/07 18:07:47;;;;;;;4.37;3.60;;;28.90;17.90;;;;;;10429587;28;20287;-81
2023/06/07 18:12:56;;;;;;;3.77;3.57;;;28.80;18.00;;;;;;10437943;28;20689;-82
2023/06/07 18:17:59;;;;;;;5.17;3.70;;;28.70;18.20;;;;;;10439996;28;20222;-82
2023/06/07 18:23:04;;;;;;;3.80;3.37;;;28.50;18.70;;;;;;10433635;28;20270;-81
2023/06/07 18:28:08;;;;;;;3.57;3.27;;;28.50;18.90;;;;;;10424757;28;20293;-81
2023/06/07 18:33:11;;;;;;;3.70;3.50;;;28.40;19.00;;;;;;10439931;28;20679;-82
2023/06/07 18:38:15;;;;;;;4.00;3.60;;;28.30;19.40;;;;;;10428181;28;20275;-82
2023/06/07 18:43:22;;;;;;;4.23;3.70;;;28.20;19.00;;;;;;10424043;28;20891;-78
2023/06/07 18:48:32;;;;;;;4.33;4.00;;;28.00;18.70;;;;;;10409901;28;20225;-78
2023/06/07 18:53:38;;;;;;;4.10;3.80;;;27.80;19.10;;;;;;10419374;28;20228;-78
2023/06/07 18:58:43;;;;;;;3.50;3.30;;;27.60;19.40;;;;;;10447641;28;20262;-82
2023/06/07 19:03:47;;;;;;;4.10;3.80;;;27.50;19.80;;;;;;10432457;28;20228;-78
2023/06/07 19:15:15;;;;;;;4.00;3.70;;;27.20;19.70;;;;;;10438536;22;20229;-75
2023/06/07 19:20:18;;;;;;;4.63;3.83;;;26.90;19.50;;;;;;10432256;28;20224;-75
2023/06/07 19:25:21;;;;;;;4.27;3.87;;;26.70;19.60;;;;;;10435717;28;21001;-77
2023/06/07 19:30:26;;;;;;;4.20;3.90;;;26.40;19.90;;;;;;10431784;28;20621;-72
2023/06/07 19:35:29;;;;;;;4.13;3.73;;;26.10;20.50;;;;;;10434199;28;20231;-73
2023/06/07 19:40:32;;;;;;;4.20;3.90;;;25.90;20.70;;;;;;10422989;28;20706;-73
2023/06/07 19:45:37;;;;;;;4.70;4.30;;;25.80;21.00;;;;;;10431574;28;20940;-73
2023/06/07 19:50:40;;;;;;;4.93;4.53;;;25.70;20.90;;;;;;10434254;28;20324;-75
2023/06/07 19:55:44;;;;;;;4.80;4.40;;;25.60;21.50;;;;;;10428420;28;20307;-74
2023/06/07 20:00:48;;;;;;;4.80;4.40;;;25.30;21.20;;;;;;10429294;28;20218;-74
2023/06/07 20:05:51;;;;;;;5.13;4.27;;;24.90;21.60;;;;;;10425424;28;20881;-75
2023/06/07 20:10:55;;;;;;;4.60;4.20;;;24.80;21.90;;;;;;10428690;28;20217;-75
2023/06/07 20:16:00;;;;;;;5.47;4.67;;;24.70;22.00;;;;;;10427911;28;20308;-75
2023/06/07 20:21:03;;;;;;;4.50;4.10;;;24.60;22.00;;;;;;10436166;28;20216;-78
2023/06/07 20:26:07;;;;;;;4.97;4.47;;;24.50;22.10;;;;;;10441215;28;20319;-74
2023/06/07 20:31:24;;;;;;;4.33;4.03;;;24.40;22.10;;;;;;10428702;28;20233;-75
2023/06/07 20:36:35;;;;;;;4.90;4.50;;;24.20;22.60;;;;;;10454015;28;20228;-79
2023/06/07 20:41:39;;;;;;;5.20;4.80;;;24.10;22.60;;;;;;10438092;28;20238;-79
2023/06/07 20:46:44;;;;;;;5.80;5.20;;;24.00;22.60;;;;;;10451337;28;20236;-80
2023/06/07 20:51:47;;;;;;;6.13;4.90;;;23.90;22.70;;;;;;10452084;28;20224;-80
2023/06/07 20:56:50;;;;;;;17.97;16.33;;;23.60;22.40;;;;;;10443382;28;20229;-80
2023/06/07 21:01:55;;;;;;;10.70;9.80;;;23.30;22.80;;;;;;10443515;28;20312;-79
2023/06/07 21:06:59;;;;;;;7.80;7.00;;;23.10;23.50;;;;;;10443510;28;20221;-79
2023/06/07 21:12:02;;;;;;;6.93;6.33;;;23.00;23.40;;;;;;10459447;28;20245;-74
2023/06/07 21:17:08;;;;;;;6.73;6.13;;;22.90;23.50;;;;;;10450778;28;20229;-73
2023/06/07 21:22:12;;;;;;;5.93;5.43;;;22.80;24.10;;;;;;10442467;28;20243;-74
2023/06/07 21:27:15;;;;;;;5.50;5.10;;;22.80;23.70;;;;;;10438908;28;20233;-74
2023/06/07 21:32:20;;;;;;;5.83;5.43;;;22.70;23.70;;;;;;10435138;28;20275;-74
2023/06/07 21:37:25;;;;;;;5.70;5.30;;;22.60;24.10;;;;;;10428526;28;20233;-76
2023/06/07 21:42:29;;;;;;;5.87;5.37;;;22.60;23.80;;;;;;10435785;28;20632;-76
2023/06/07 21:47:34;;;;;;;6.03;5.43;;;22.50;24.00;;;;;;10431240;28;20271;-77
2023/06/07 21:52:50;;;;;;;6.10;5.60;;;22.40;24.50;;;;;;10456940;28;20220;-79
2023/06/07 21:57:55;;;;;;;5.80;5.30;;;22.30;24.80;;;;;;10437551;28;20232;-74
2023/06/07 22:03:04;;;;;;;5.37;4.97;;;22.20;24.40;;;;;;10449070;28;20305;-78
2023/06/07 22:08:28;;;;;;;5.10;4.70;;;22.10;25.10;;;;;;10427909;28;20233;-74
2023/06/07 22:13:36;;;;;;;5.63;5.23;;;22.10;24.60;;;;;;10427543;28;20728;-75
2023/06/07 22:18:44;;;;;;;5.53;5.10;;;22.00;24.80;;;;;;10438516;28;20224;-74
2023/06/07 22:23:47;;;;;;;6.13;5.53;;;22.00;25.20;;;;;;10425634;28;20229;-74
2023/06/07 22:28:50;;;;;;;5.50;5.10;;;22.00;25.00;;;;;;10442773;28;20307;-74
2023/06/07 22:33:55;;;;;;;6.07;5.67;;;22.00;25.10;;;;;;10438336;28;20251;-75
2023/06/07 22:39:00;;;;;;;5.17;4.77;;;21.90;25.30;;;;;;10440655;28;20233;-74
2023/06/07 22:44:04;;;;;;;5.63;5.13;;;21.90;25.10;;;;;;10457416;28;20252;-79
2023/06/07 22:49:11;;;;;;;5.97;5.57;;;21.90;25.20;;;;;;10455897;28;20255;-77
2023/06/07 22:54:14;;;;;;;5.53;5.13;;;21.70;25.50;;;;;;10450989;28;20260;-79
2023/06/07 22:59:17;;;;;;;5.30;4.90;;;21.70;25.40;;;;;;10448187;28;20228;-79
2023/06/07 23:04:22;;;;;;;5.60;5.20;;;21.70;25.50;;;;;;10443202;28;20228;-79
2023/06/07 23:09:25;;;;;;;5.90;5.33;;;21.60;25.90;;;;;;10445481;28;20256;-79
2023/06/07 23:14:28;;;;;;;6.43;5.37;;;21.50;26.10;;;;;;10447341;28;20226;-79
2023/06/07 23:19:33;;;;;;;6.20;5.73;;;21.40;25.80;;;;;;10438422;28;20229;-80
2023/06/07 23:24:37;;;;;;;6.50;5.90;;;21.30;26.20;;;;;;10437624;28;20332;-79
2023/06/07 23:29:40;;;;;;;6.43;5.90;;;21.20;26.10;;;;;;10459091;28;20280;-80
2023/06/07 23:34:44;;;;;;;6.13;5.63;;;21.00;26.00;;;;;;10449976;28;20592;-79
2023/06/07 23:39:48;;;;;;;6.37;5.87;;;20.90;26.20;;;;;;10439862;28;20925;-79
2023/06/07 23:44:51;;;;;;;6.77;6.17;;;20.80;26.10;;;;;;10436264;28;20316;-79
2023/06/07 23:49:55;;;;;;;6.60;6.10;;;20.70;26.40;;;;;;10449254;28;20224;-80
2023/06/07 23:54:59;;;;;;;6.60;5.83;;;20.60;26.90;;;;;;10442470;28;20351;-78
